createdAt,value
2022-09-11T00:00:45.543Z,99969.41
2022-09-11T00:01:48.289Z,99968.45
2022-09-11T00:02:51.222Z,99966.07
2022-09-11T00:03:53.726Z,99960.11
2022-09-11T00:04:56.161Z,99947.83
2022-09-11T00:05:58.991Z,99951.88
2022-09-11T00:07:01.849Z,99953.79
2022-09-11T00:08:04.293Z,99947.86
2022-09-11T00:09:06.956Z,99950.64
2022-09-11T00:10:10.558Z,99955.68
2022-09-11T00:11:13.430Z,99957.59
2022-09-11T00:12:15.868Z,99950.09
2022-09-11T00:13:18.347Z,99945.62
2022-09-11T00:14:20.798Z,99940.41
2022-09-11T00:15:23.243Z,99942.17
2022-09-11T00:16:27.602Z,99940.52
2022-09-11T00:17:30.419Z,99944.64
2022-09-11T00:18:32.859Z,99946.99
2022-09-11T00:19:35.316Z,99966.91
2022-09-11T00:20:38.441Z,99953.12
2022-09-11T00:21:41.375Z,99958.97
2022-09-11T00:22:44.058Z,99958.54
2022-09-11T00:23:46.534Z,99963.40
2022-09-11T00:24:48.972Z,99959.91
2022-09-11T00:25:51.736Z,99955.87
2022-09-11T00:26:54.406Z,99953.09
2022-09-11T00:27:57.038Z,99956.70
2022-09-11T00:28:59.816Z,99957.27
2022-09-11T00:30:02.501Z,99961.21
2022-09-11T00:31:05.506Z,99952.58
2022-09-11T00:32:08.129Z,99957.30
2022-09-11T00:33:10.591Z,99954.82
2022-09-11T00:34:13.029Z,99960.78
2022-09-11T00:35:15.467Z,99953.39
2022-09-11T00:36:18.403Z,99947.42
2022-09-11T00:37:20.863Z,99949.23
2022-09-11T00:38:23.299Z,99948.27
2022-09-11T00:39:25.739Z,99955.02
2022-09-11T00:40:28.810Z,99952.58
2022-09-11T00:41:31.443Z,99963.96
2022-09-11T00:42:34.214Z,99964.02
2022-09-11T00:43:36.651Z,99964.31
2022-09-11T00:44:39.084Z,99962.88
2022-09-11T00:45:41.550Z,99961.08
2022-09-11T00:46:44.165Z,99952.84
2022-09-11T00:47:46.977Z,99961.78
2022-09-11T00:48:49.511Z,99957.66
2022-09-11T00:49:51.959Z,99961.78
2022-09-11T00:50:54.590Z,99961.21
2022-09-11T00:51:57.227Z,99958.30
2022-09-11T00:52:59.724Z,99963.53
2022-09-11T00:54:02.170Z,99956.73
2022-09-11T00:55:04.603Z,99958.19
2022-09-11T00:56:07.348Z,99948.83
2022-09-11T00:57:09.987Z,99951.09
2022-09-11T00:58:12.442Z,99959.59
2022-09-11T00:59:14.877Z,99952.55
2022-09-11T01:00:17.739Z,99942.77
2022-09-11T01:01:20.390Z,99948.34
2022-09-11T01:02:26.813Z,99946.78
2022-09-11T01:03:27.441Z,99946.08
2022-09-11T01:04:29.879Z,99940.12
2022-09-11T01:05:32.339Z,99942.77
2022-09-11T01:06:35.212Z,99943.44
2022-09-11T01:07:37.653Z,99941.27
2022-09-11T01:08:40.343Z,99934.96
2022-09-11T01:09:42.879Z,99943.84
2022-09-11T01:10:45.608Z,99944.75
2022-09-11T01:11:48.062Z,99933.34
2022-09-11T01:12:50.530Z,99937.55
2022-09-11T01:13:53.042Z,99932.80
2022-09-11T01:14:55.472Z,99930.45
2022-09-11T01:15:57.939Z,99931.83
2022-09-11T01:17:00.673Z,99932.78
2022-09-11T01:18:03.105Z,99930.67
2022-09-11T01:19:05.569Z,99926.06
2022-09-11T01:20:08.416Z,99929.30
2022-09-11T01:21:11.060Z,99940.95
2022-09-11T01:22:13.721Z,99930.27
2022-09-11T01:23:16.158Z,99928.70
2022-09-11T01:24:18.619Z,99933.75
2022-09-11T01:25:21.069Z,99930.38
2022-09-11T01:26:23.808Z,99934.59
2022-09-11T01:27:26.242Z,99927.30
2022-09-11T01:28:28.695Z,99927.84
2022-09-11T01:29:31.155Z,99941.59
2022-09-11T01:30:34.192Z,99925.87
2022-09-11T01:31:36.693Z,99932.30
2022-09-11T01:32:39.200Z,99936.64
2022-09-11T01:33:41.769Z,99932.00
2022-09-11T01:34:44.619Z,99927.55
2022-09-11T01:35:47.110Z,99930.32
2022-09-11T01:36:50.150Z,99929.35
2022-09-11T01:37:52.584Z,99929.75
2022-09-11T01:38:55.016Z,99933.97
2022-09-11T01:39:57.540Z,99934.77
2022-09-11T01:41:00.249Z,99931.80
2022-09-11T01:42:02.883Z,99924.30
2022-09-11T01:43:05.629Z,99929.65
2022-09-11T01:44:08.056Z,99926.41
2022-09-11T01:45:10.538Z,99922.45
2022-09-11T01:46:14.789Z,99928.22
2022-09-11T01:47:17.441Z,99930.45
2022-09-11T01:48:20.185Z,99929.62
2022-09-11T01:49:22.620Z,99931.41
2022-09-11T01:50:25.649Z,99923.85
2022-09-11T01:51:28.079Z,99932.37
2022-09-11T01:52:30.554Z,99930.41
2022-09-11T01:53:33.282Z,99932.08
2022-09-11T01:54:35.851Z,99927.39
2022-09-11T01:55:38.315Z,99935.02
2022-09-11T01:56:40.865Z,99930.70
2022-09-11T01:57:43.302Z,99933.05
2022-09-11T01:58:45.972Z,99930.88
2022-09-11T01:59:48.406Z,99929.86
2022-09-11T02:00:51.060Z,99927.92
2022-09-11T02:01:53.694Z,99930.41
2022-09-11T02:02:58.046Z,99927.92
2022-09-11T02:04:00.477Z,99927.09
2022-09-11T02:05:03.117Z,99930.03
2022-09-11T02:06:05.895Z,99926.01
2022-09-11T02:07:08.528Z,99928.53
2022-09-11T02:08:10.970Z,99923.07
2022-09-11T02:09:13.402Z,99928.22
2022-09-11T02:10:17.455Z,99928.36
2022-09-11T02:11:19.918Z,99930.59
2022-09-11T02:12:22.376Z,99937.25
2022-09-11T02:13:27.723Z,99940.78
2022-09-11T02:14:29.173Z,99934.31
2022-09-11T02:15:31.622Z,99937.68
2022-09-11T02:16:34.478Z,99940.59
2022-09-11T02:17:37.970Z,99944.62
2022-09-11T02:18:40.426Z,99934.42
2022-09-11T02:19:42.866Z,99935.13
2022-09-11T02:20:45.713Z,99937.95
2022-09-11T02:21:48.415Z,99944.16
2022-09-11T02:22:50.956Z,99941.92
2022-09-11T02:23:53.688Z,99941.57
2022-09-11T02:24:56.130Z,99942.97
2022-09-11T02:25:58.561Z,99937.42
2022-09-11T02:27:01.747Z,99940.59
2022-09-11T02:28:04.396Z,99939.17
2022-09-11T02:29:06.931Z,99930.14
2022-09-11T02:30:09.661Z,99931.65
2022-09-11T02:31:12.451Z,99929.14
2022-09-11T02:32:15.034Z,99920.42
2022-09-11T02:33:17.455Z,99917.11
2022-09-11T02:34:19.901Z,99922.95
2022-09-11T02:35:22.330Z,99911.01
2022-09-11T02:36:25.696Z,99904.05
2022-09-11T02:37:28.176Z,99909.20
2022-09-11T02:38:30.622Z,99906.61
2022-09-11T02:39:33.052Z,99903.24
2022-09-11T02:40:35.920Z,99902.97
2022-09-11T02:41:38.766Z,99897.25
2022-09-11T02:42:41.258Z,99906.86
2022-09-11T02:43:43.901Z,99906.86
2022-09-11T02:44:46.543Z,99905.23
2022-09-11T02:45:49.029Z,99910.23
2022-09-11T02:46:51.830Z,99905.77
2022-09-11T02:47:54.315Z,99907.16
2022-09-11T02:48:56.761Z,99907.41
2022-09-11T02:49:59.210Z,99909.09
2022-09-11T02:51:02.218Z,99904.34
2022-09-11T02:52:04.652Z,99904.64
2022-09-11T02:53:07.126Z,99900.19
2022-09-11T02:54:09.619Z,99891.02
2022-09-11T02:55:12.070Z,99901.33
2022-09-11T02:56:14.911Z,99900.86
2022-09-11T02:57:17.358Z,99902.70
2022-09-11T02:58:19.832Z,99909.33
2022-09-11T02:59:22.581Z,99903.08
2022-09-11T03:00:26.542Z,99907.33
2022-09-11T03:01:28.985Z,99902.70
2022-09-11T03:02:31.428Z,99905.59
2022-09-11T03:03:33.966Z,99904.89
2022-09-11T03:04:36.537Z,99911.01
2022-09-11T03:05:38.977Z,99912.92
2022-09-11T03:06:41.629Z,99919.34
2022-09-11T03:07:44.080Z,99913.47
2022-09-11T03:08:46.557Z,99908.77
2022-09-11T03:09:48.996Z,99899.36
2022-09-11T03:10:51.944Z,99906.61
2022-09-11T03:11:54.383Z,99899.78
2022-09-11T03:12:56.835Z,99896.84
2022-09-11T03:13:59.310Z,99899.60
2022-09-11T03:15:01.754Z,99887.93
2022-09-11T03:16:04.459Z,99902.11
2022-09-11T03:17:07.077Z,99896.72
2022-09-11T03:18:09.523Z,99895.34
2022-09-11T03:19:12.027Z,99894.07
2022-09-11T03:20:15.681Z,99890.30
2022-09-11T03:21:18.348Z,99897.42
2022-09-11T03:22:20.791Z,99898.81
2022-09-11T03:23:23.333Z,99891.06
2022-09-11T03:24:25.825Z,99892.45
2022-09-11T03:25:28.370Z,99890.22
2022-09-11T03:26:31.004Z,99893.83
2022-09-11T03:27:33.442Z,99886.63
2022-09-11T03:28:36.197Z,99894.25
2022-09-11T03:29:38.689Z,99889.94
2022-09-11T03:30:41.434Z,99884.66
2022-09-11T03:31:44.097Z,99883.02
2022-09-11T03:32:46.646Z,99891.61
2022-09-11T03:33:49.094Z,99882.84
2022-09-11T03:34:51.582Z,99888.44
2022-09-11T03:35:54.027Z,99874.92
2022-09-11T03:36:56.903Z,99856.86
2022-09-11T03:37:59.345Z,99865.06
2022-09-11T03:39:01.844Z,99873.41
2022-09-11T03:40:04.543Z,99861.71
2022-09-11T03:41:07.453Z,99871.45
2022-09-11T03:42:10.515Z,99872.70
2022-09-11T03:43:12.963Z,99869.52
2022-09-11T03:44:15.411Z,99873.00
2022-09-11T03:45:17.880Z,99874.80
2022-09-11T03:46:21.439Z,99872.94
2022-09-11T03:47:23.883Z,99883.14
2022-09-11T03:48:26.382Z,99878.83
2022-09-11T03:49:28.837Z,99873.25
2022-09-11T03:50:31.510Z,99868.27
2022-09-11T03:51:33.959Z,99864.36
2022-09-11T03:52:36.398Z,99858.05
2022-09-11T03:53:38.882Z,99863.07
2022-09-11T03:54:41.447Z,99865.55
2022-09-11T03:55:43.956Z,99865.98
2022-09-11T03:56:46.597Z,99854.87
2022-09-11T03:57:49.255Z,99863.52
2022-09-11T03:58:51.697Z,99862.84
2022-09-11T03:59:54.353Z,99867.54
2022-09-11T04:00:57.057Z,99864.90
2022-09-11T04:01:59.719Z,99861.58
2022-09-11T04:03:02.234Z,99857.80
2022-09-11T04:04:04.676Z,99852.77
2022-09-11T04:05:07.158Z,99859.72
2022-09-11T04:06:10.051Z,99863.87
2022-09-11T04:07:12.487Z,99854.25
2022-09-11T04:08:15.034Z,99849.80
2022-09-11T04:09:17.472Z,99853.11
2022-09-11T04:10:20.437Z,99850.29
2022-09-11T04:11:23.046Z,99848.86
2022-09-11T04:12:25.494Z,99850.29
2022-09-11T04:13:28.152Z,99847.65
2022-09-11T04:14:30.621Z,99845.48
2022-09-11T04:15:33.063Z,99844.45
2022-09-11T04:16:35.909Z,99847.26
2022-09-11T04:17:38.496Z,99839.56
2022-09-11T04:18:41.269Z,99839.80
2022-09-11T04:19:43.742Z,99841.81
2022-09-11T04:20:46.501Z,99841.77
2022-09-11T04:21:49.415Z,99836.52
2022-09-11T04:22:51.861Z,99842.11
2022-09-11T04:23:54.322Z,99833.14
2022-09-11T04:24:56.853Z,99837.76
2022-09-11T04:25:59.298Z,99849.40
2022-09-11T04:27:01.902Z,99845.55
2022-09-11T04:28:04.405Z,99849.37
2022-09-11T04:29:06.846Z,99844.41
2022-09-11T04:30:09.893Z,99841.91
2022-09-11T04:31:12.372Z,99856.13
2022-09-11T04:32:14.942Z,99850.23
2022-09-11T04:33:17.385Z,99851.08
2022-09-11T04:34:19.848Z,99849.63
2022-09-11T04:35:22.289Z,99853.41
2022-09-11T04:36:25.337Z,99854.59
2022-09-11T04:37:27.805Z,99851.41
2022-09-11T04:38:30.343Z,99853.19
2022-09-11T04:39:33.093Z,99850.84
2022-09-11T04:40:35.669Z,99848.73
2022-09-11T04:41:38.305Z,99850.73
2022-09-11T04:42:40.969Z,99852.37
2022-09-11T04:43:43.801Z,99848.14
2022-09-11T04:44:46.400Z,99847.17
2022-09-11T04:45:48.856Z,99853.41
2022-09-11T04:46:51.680Z,99849.94
2022-09-11T04:47:54.372Z,99849.27
2022-09-11T04:48:56.872Z,99848.83
2022-09-11T04:49:59.321Z,99844.73
2022-09-11T04:51:02.361Z,99838.92
2022-09-11T04:52:04.808Z,99837.78
2022-09-11T04:53:07.349Z,99838.69
2022-09-11T04:54:09.773Z,99834.08
2022-09-11T04:55:12.229Z,99837.69
2022-09-11T04:56:16.477Z,99837.11
2022-09-11T04:57:18.908Z,99836.58
2022-09-11T04:58:21.368Z,99835.84
2022-09-11T04:59:23.833Z,99833.20
2022-09-11T05:00:26.708Z,99832.80
2022-09-11T05:01:29.343Z,99843.91
2022-09-11T05:02:31.825Z,99837.95
2022-09-11T05:03:34.382Z,99834.12
2022-09-11T05:04:37.085Z,99832.03
2022-09-11T05:05:39.523Z,99831.73
2022-09-11T05:06:42.362Z,99831.95
2022-09-11T05:07:45.003Z,99831.42
2022-09-11T05:08:47.466Z,99832.87
2022-09-11T05:09:49.899Z,99832.28
2022-09-11T05:10:52.736Z,99831.87
2022-09-11T05:11:55.174Z,99831.73
2022-09-11T05:12:57.650Z,99832.92
2022-09-11T05:14:00.213Z,99830.23
2022-09-11T05:15:02.642Z,99844.03
2022-09-11T05:16:05.544Z,99836.09
2022-09-11T05:17:07.985Z,99831.42
2022-09-11T05:18:10.426Z,99842.61
2022-09-11T05:19:12.993Z,99832.28
2022-09-11T05:20:16.461Z,99834.92
2022-09-11T05:21:19.105Z,99836.72
2022-09-11T05:22:22.103Z,99845.40
2022-09-11T05:23:24.751Z,99837.63
2022-09-11T05:24:27.236Z,99833.53
2022-09-11T05:25:29.667Z,99832.25
2022-09-11T05:26:32.514Z,99831.95
2022-09-11T05:27:34.949Z,99836.72
2022-09-11T05:28:37.392Z,99836.09
2022-09-11T05:29:39.855Z,99838.61
2022-09-11T05:30:42.513Z,99825.16
2022-09-11T05:31:45.001Z,99830.81
2022-09-11T05:32:47.607Z,99822.30
2022-09-11T05:33:50.046Z,99824.94
2022-09-11T05:34:52.541Z,99831.50
2022-09-11T05:35:54.978Z,99825.16
2022-09-11T05:36:57.630Z,99828.19
2022-09-11T05:38:00.058Z,99828.71
2022-09-11T05:39:02.501Z,99834.31
2022-09-11T05:40:05.380Z,99832.78
2022-09-11T05:41:08.005Z,99826.52
2022-09-11T05:42:10.649Z,99821.23
2022-09-11T05:43:13.383Z,99824.85
2022-09-11T05:44:16.227Z,99822.52
2022-09-11T05:45:18.705Z,99830.00
2022-09-11T05:46:22.974Z,99819.78
2022-09-11T05:47:25.607Z,99823.57
2022-09-11T05:48:28.048Z,99817.91
2022-09-11T05:49:30.524Z,99826.30
2022-09-11T05:50:33.926Z,99818.44
2022-09-11T05:51:36.361Z,99815.86
2022-09-11T05:52:39.111Z,99810.71
2022-09-11T05:53:41.641Z,99812.66
2022-09-11T05:54:44.533Z,99819.55
2022-09-11T05:55:47.055Z,99829.39
2022-09-11T05:56:50.059Z,99812.68
2022-09-11T05:57:52.563Z,99812.63
2022-09-11T05:58:55.013Z,99808.97
2022-09-11T05:59:57.471Z,99811.34
2022-09-11T06:01:00.316Z,99814.33
2022-09-11T06:02:03.019Z,99813.50
2022-09-11T06:03:05.904Z,99816.45
2022-09-11T06:04:08.607Z,99822.50
2022-09-11T06:05:11.111Z,99811.78
2022-09-11T06:06:15.193Z,99814.72
2022-09-11T06:07:17.672Z,99815.17
2022-09-11T06:08:20.103Z,99817.59
2022-09-11T06:09:22.573Z,99826.73
2022-09-11T06:10:26.949Z,99821.08
2022-09-11T06:11:29.427Z,99817.97
2022-09-11T06:12:31.862Z,99812.63
2022-09-11T06:13:34.357Z,99816.24
2022-09-11T06:14:36.850Z,99817.43
2022-09-11T06:15:46.454Z,99807.16
2022-09-11T06:16:44.079Z,99812.00
2022-09-11T06:17:46.690Z,99808.38
2022-09-11T06:18:49.601Z,99804.66
2022-09-11T06:19:52.317Z,99809.63
2022-09-11T06:20:54.960Z,99801.03
2022-09-11T06:21:57.456Z,99801.31
2022-09-11T06:23:00.293Z,99799.56
2022-09-11T06:24:02.733Z,99801.87
2022-09-11T06:25:05.222Z,99805.28
2022-09-11T06:26:08.675Z,99802.39
2022-09-11T06:27:11.147Z,99806.56
2022-09-11T06:28:13.578Z,99800.75
2022-09-11T06:29:16.021Z,99804.97
2022-09-11T06:30:19.632Z,99809.11
2022-09-11T06:31:22.128Z,99807.05
2022-09-11T06:32:24.632Z,99809.25
2022-09-11T06:33:27.062Z,99810.74
2022-09-11T06:34:29.505Z,99805.63
2022-09-11T06:35:31.935Z,99803.00
2022-09-11T06:36:34.703Z,99806.48
2022-09-11T06:37:37.169Z,99801.25
2022-09-11T06:38:39.605Z,99803.58
2022-09-11T06:39:42.098Z,99799.17
2022-09-11T06:40:44.885Z,99802.80
2022-09-11T06:41:47.427Z,99788.12
2022-09-11T06:42:50.108Z,99794.83
2022-09-11T06:43:52.551Z,99800.59
2022-09-11T06:44:55.091Z,99793.22
2022-09-11T06:45:57.575Z,99797.09
2022-09-11T06:47:00.889Z,99791.47
2022-09-11T06:48:03.353Z,99790.07
2022-09-11T06:49:05.800Z,99795.19
2022-09-11T06:50:08.767Z,99789.38
2022-09-11T06:51:11.512Z,99787.28
2022-09-11T06:52:14.127Z,99791.28
2022-09-11T06:53:16.857Z,99793.61
2022-09-11T06:54:19.294Z,99795.49
2022-09-11T06:55:21.766Z,99802.49
2022-09-11T06:56:24.514Z,99798.61
2022-09-11T06:57:26.957Z,99802.16
2022-09-11T06:58:29.454Z,99797.27
2022-09-11T06:59:31.890Z,99804.27
2022-09-11T07:00:34.538Z,99800.68
2022-09-11T07:01:37.898Z,99796.06
2022-09-11T07:02:40.841Z,99799.09
2022-09-11T07:03:43.420Z,99797.45
2022-09-11T07:04:46.177Z,99802.64
2022-09-11T07:05:48.647Z,99794.72
2022-09-11T07:06:51.531Z,99793.11
2022-09-11T07:07:54.170Z,99792.15
2022-09-11T07:08:56.842Z,99792.10
2022-09-11T07:09:59.485Z,99788.80
2022-09-11T07:11:02.150Z,99793.59
2022-09-11T07:12:04.591Z,99786.11
2022-09-11T07:13:07.036Z,99787.78
2022-09-11T07:14:09.532Z,99782.86
2022-09-11T07:15:11.975Z,99792.15
2022-09-11T07:16:14.947Z,99780.13
2022-09-11T07:17:17.562Z,99777.33
2022-09-11T07:18:20.004Z,99775.00
2022-09-11T07:19:22.484Z,99766.03
2022-09-11T07:20:25.525Z,99772.89
2022-09-11T07:21:28.303Z,99777.69
2022-09-11T07:22:30.946Z,99766.77
2022-09-11T07:23:33.424Z,99770.43
2022-09-11T07:24:36.060Z,99766.94
2022-09-11T07:25:38.584Z,99763.95
2022-09-11T07:26:41.339Z,99761.98
2022-09-11T07:27:43.819Z,99763.33
2022-09-11T07:28:46.274Z,99753.81
2022-09-11T07:29:48.775Z,99755.34
2022-09-11T07:30:51.669Z,99749.21
2022-09-11T07:31:54.371Z,99751.20
2022-09-11T07:32:56.815Z,99746.59
2022-09-11T07:33:59.253Z,99749.41
2022-09-11T07:35:01.735Z,99739.11
2022-09-11T07:36:04.380Z,99741.94
2022-09-11T07:37:06.962Z,99738.95
2022-09-11T07:38:09.409Z,99742.27
2022-09-11T07:39:11.843Z,99742.93
2022-09-11T07:40:14.562Z,99746.75
2022-09-11T07:41:17.411Z,99739.27
2022-09-11T07:42:19.858Z,99729.84
2022-09-11T07:43:22.313Z,99736.45
2022-09-11T07:44:24.933Z,99741.27
2022-09-11T07:45:27.438Z,99733.98
2022-09-11T07:46:31.739Z,99738.12
2022-09-11T07:47:34.177Z,99737.78
2022-09-11T07:48:36.722Z,99740.13
2022-09-11T07:49:39.174Z,99732.16
2022-09-11T07:50:42.077Z,99733.14
2022-09-11T07:51:44.546Z,99743.24
2022-09-11T07:52:46.993Z,99731.81
2022-09-11T07:53:49.443Z,99736.12
2022-09-11T07:54:52.134Z,99733.98
2022-09-11T07:55:54.714Z,99733.31
2022-09-11T07:56:57.461Z,99731.83
2022-09-11T07:57:59.905Z,99734.33
2022-09-11T07:59:02.348Z,99737.62
2022-09-11T08:00:05.240Z,99724.52
2022-09-11T08:01:07.846Z,99720.38
2022-09-11T08:02:10.484Z,99722.88
2022-09-11T08:03:13.466Z,99722.05
2022-09-11T08:04:15.923Z,99715.91
2022-09-11T08:05:18.361Z,99718.72
2022-09-11T08:06:22.682Z,99717.73
2022-09-11T08:07:25.392Z,99716.89
2022-09-11T08:08:27.857Z,99712.57
2022-09-11T08:09:30.295Z,99719.84
2022-09-11T08:10:33.042Z,99716.55
2022-09-11T08:11:35.539Z,99708.73
2022-09-11T08:12:38.076Z,99719.20
2022-09-11T08:13:40.822Z,99719.20
2022-09-11T08:14:43.613Z,99716.55
2022-09-11T08:15:46.054Z,99716.21
2022-09-11T08:16:48.889Z,99705.92
2022-09-11T08:17:51.468Z,99707.90
2022-09-11T08:18:54.217Z,99705.09
2022-09-11T08:19:56.656Z,99701.62
2022-09-11T08:20:59.503Z,99706.27
2022-09-11T08:22:01.997Z,99703.27
2022-09-11T08:23:04.535Z,99711.73
2022-09-11T08:24:06.979Z,99706.91
2022-09-11T08:25:09.752Z,99697.63
2022-09-11T08:26:12.806Z,99691.81
2022-09-11T08:27:15.497Z,99705.23
2022-09-11T08:28:17.951Z,99694.63
2022-09-11T08:29:20.495Z,99700.09
2022-09-11T08:30:23.850Z,99699.08
2022-09-11T08:31:26.489Z,99695.94
2022-09-11T08:32:29.589Z,99687.81
2022-09-11T08:33:32.051Z,99695.61
2022-09-11T08:34:34.500Z,99689.48
2022-09-11T08:35:36.945Z,99675.86
2022-09-11T08:36:39.839Z,99681.83
2022-09-11T08:37:42.637Z,99677.20
2022-09-11T08:38:45.192Z,99684.33
2022-09-11T08:39:47.670Z,99685.81
2022-09-11T08:40:50.478Z,99680.34
2022-09-11T08:41:52.921Z,99670.88
2022-09-11T08:42:55.908Z,99684.98
2022-09-11T08:43:58.356Z,99680.84
2022-09-11T08:45:00.802Z,99681.16
2022-09-11T08:46:03.602Z,99679.84
2022-09-11T08:47:06.096Z,99676.52
2022-09-11T08:48:08.570Z,99679.03
2022-09-11T08:49:11.044Z,99679.85
2022-09-11T08:50:15.341Z,99678.38
2022-09-11T08:51:17.800Z,99682.02
2022-09-11T08:52:20.436Z,99671.07
2022-09-11T08:53:22.911Z,99670.73
2022-09-11T08:54:25.462Z,99678.69
2022-09-11T08:55:27.963Z,99674.04
2022-09-11T08:56:30.534Z,99676.70
2022-09-11T08:57:32.979Z,99675.86
2022-09-11T08:58:35.445Z,99669.56
2022-09-11T08:59:37.894Z,99680.67
2022-09-11T09:00:40.656Z,99675.05
2022-09-11T09:01:43.575Z,99678.69
2022-09-11T09:02:46.041Z,99660.92
2022-09-11T09:03:48.532Z,99680.35
2022-09-11T09:04:51.178Z,99685.67
2022-09-11T09:05:53.938Z,99675.05
2022-09-11T09:06:56.586Z,99683.33
2022-09-11T09:07:59.076Z,99681.34
2022-09-11T09:09:01.545Z,99676.19
2022-09-11T09:10:04.766Z,99676.70
2022-09-11T09:11:07.205Z,99676.19
2022-09-11T09:12:09.653Z,99667.89
2022-09-11T09:13:12.098Z,99668.38
2022-09-11T09:14:14.587Z,99671.38
2022-09-11T09:15:17.035Z,99665.40
2022-09-11T09:16:21.361Z,99658.97
2022-09-11T09:17:23.855Z,99672.06
2022-09-11T09:18:26.302Z,99669.39
2022-09-11T09:19:29.013Z,99664.75
2022-09-11T09:20:32.566Z,99670.06
2022-09-11T09:21:35.001Z,99668.40
2022-09-11T09:22:37.458Z,99665.40
2022-09-11T09:23:39.950Z,99672.03
2022-09-11T09:24:42.655Z,99672.39
2022-09-11T09:25:45.293Z,99678.67
2022-09-11T09:26:47.936Z,99681.19
2022-09-11T09:27:50.572Z,99676.02
2022-09-11T09:28:53.010Z,99667.88
2022-09-11T09:29:55.518Z,99681.81
2022-09-11T09:30:58.616Z,99679.52
2022-09-11T09:32:01.293Z,99679.31
2022-09-11T09:33:03.732Z,99677.30
2022-09-11T09:34:06.167Z,99679.00
2022-09-11T09:35:08.675Z,99674.32
2022-09-11T09:36:11.614Z,99677.00
2022-09-11T09:37:14.057Z,99672.50
2022-09-11T09:38:18.701Z,99678.53
2022-09-11T09:39:20.914Z,99680.65
2022-09-11T09:40:24.839Z,99681.45
2022-09-11T09:41:27.810Z,99678.64
2022-09-11T09:42:30.443Z,99680.44
2022-09-11T09:43:32.881Z,99679.26
2022-09-11T09:44:35.419Z,99672.34
2022-09-11T09:45:37.939Z,99676.98
2022-09-11T09:46:40.871Z,99680.95
2022-09-11T09:47:43.333Z,99679.31
2022-09-11T09:48:45.776Z,99679.64
2022-09-11T09:49:48.248Z,99688.46
2022-09-11T09:50:50.940Z,99690.28
2022-09-11T09:51:53.475Z,99696.91
2022-09-11T09:52:55.911Z,99700.56
2022-09-11T09:53:58.345Z,99699.27
2022-09-11T09:55:00.783Z,99698.30
2022-09-11T09:56:03.661Z,99700.91
2022-09-11T09:57:06.095Z,99702.59
2022-09-11T09:58:08.917Z,99697.64
2022-09-11T09:59:11.374Z,99699.65
2022-09-11T10:00:15.231Z,99707.80
2022-09-11T10:01:18.151Z,99700.82
2022-09-11T10:02:21.121Z,99703.13
2022-09-11T10:03:23.645Z,99705.79
2022-09-11T10:04:26.105Z,99702.64
2022-09-11T10:05:28.544Z,99698.32
2022-09-11T10:06:31.222Z,99692.03
2022-09-11T10:07:33.684Z,99693.69
2022-09-11T10:08:36.121Z,99694.67
2022-09-11T10:09:38.593Z,99698.50
2022-09-11T10:10:41.233Z,99702.31
2022-09-11T10:11:43.930Z,99696.67
2022-09-11T10:12:46.575Z,99695.98
2022-09-11T10:13:49.327Z,99708.75
2022-09-11T10:14:52.487Z,99701.97
2022-09-11T10:15:55.300Z,99697.49
2022-09-11T10:16:58.022Z,99696.64
2022-09-11T10:18:00.487Z,99699.11
2022-09-11T10:19:03.443Z,99686.67
2022-09-11T10:20:06.189Z,99691.31
2022-09-11T10:21:08.835Z,99680.70
2022-09-11T10:22:11.531Z,99685.33
2022-09-11T10:23:14.190Z,99686.61
2022-09-11T10:24:16.679Z,99671.09
2022-09-11T10:25:19.128Z,99667.06
2022-09-11T10:26:22.621Z,99657.46
2022-09-11T10:27:28.458Z,99648.17
2022-09-11T10:28:29.454Z,99652.83
2022-09-11T10:29:32.100Z,99643.36
2022-09-11T10:30:35.662Z,99633.40
2022-09-11T10:31:38.106Z,99620.16
2022-09-11T10:32:40.591Z,99617.95
2022-09-11T10:33:43.338Z,99607.66
2022-09-11T10:34:45.777Z,99605.23
2022-09-11T10:35:48.251Z,99610.02
2022-09-11T10:36:51.126Z,99603.53
2022-09-11T10:37:53.640Z,99595.11
2022-09-11T10:38:56.207Z,99593.77
2022-09-11T10:39:58.689Z,99597.40
2022-09-11T10:41:01.416Z,99600.41
2022-09-11T10:42:03.856Z,99604.41
2022-09-11T10:43:06.613Z,99608.67
2022-09-11T10:44:09.048Z,99607.72
2022-09-11T10:45:11.498Z,99612.36
2022-09-11T10:46:14.493Z,99603.09
2022-09-11T10:47:16.999Z,99615.22
2022-09-11T10:48:19.463Z,99617.36
2022-09-11T10:49:21.930Z,99621.52
2022-09-11T10:50:24.587Z,99626.19
2022-09-11T10:51:27.033Z,99625.86
2022-09-11T10:52:29.469Z,99628.86
2022-09-11T10:53:32.036Z,99632.17
2022-09-11T10:54:34.484Z,99623.23
2022-09-11T10:55:36.936Z,99630.34
2022-09-11T10:56:39.673Z,99623.39
2022-09-11T10:57:42.126Z,99629.68
2022-09-11T10:58:44.728Z,99625.40
2022-09-11T10:59:47.642Z,99619.91
2022-09-11T11:00:50.312Z,99611.12
2022-09-11T11:01:52.929Z,99605.16
2022-09-11T11:02:55.717Z,99613.27
2022-09-11T11:03:58.182Z,99624.70
2022-09-11T11:05:00.680Z,99628.34
2022-09-11T11:06:03.337Z,99620.87
2022-09-11T11:07:05.974Z,99630.98
2022-09-11T11:08:08.715Z,99625.47
2022-09-11T11:09:11.234Z,99618.65
2022-09-11T11:10:15.060Z,99618.65
2022-09-11T11:11:17.503Z,99610.98
2022-09-11T11:12:19.970Z,99597.86
2022-09-11T11:13:22.651Z,99596.07
2022-09-11T11:14:25.316Z,99600.00
2022-09-11T11:15:30.256Z,99598.66
2022-09-11T11:16:32.568Z,99600.68
2022-09-11T11:17:35.027Z,99602.34
2022-09-11T11:18:37.473Z,99605.29
2022-09-11T11:19:39.953Z,99602.00
2022-09-11T11:20:43.094Z,99604.30
2022-09-11T11:21:45.830Z,99599.47
2022-09-11T11:22:48.268Z,99604.07
2022-09-11T11:23:50.713Z,99600.42
2022-09-11T11:24:53.196Z,99600.62
2022-09-11T11:25:55.631Z,99595.30
2022-09-11T11:26:58.270Z,99591.34
2022-09-11T11:28:00.817Z,99591.94
2022-09-11T11:29:03.261Z,99597.41
2022-09-11T11:30:06.348Z,99591.94
2022-09-11T11:31:08.836Z,99598.95
2022-09-11T11:32:11.326Z,99591.81
2022-09-11T11:33:13.761Z,99594.47
2022-09-11T11:34:16.649Z,99595.82
2022-09-11T11:35:19.124Z,99596.17
2022-09-11T11:36:22.285Z,99586.03
2022-09-11T11:37:24.742Z,99594.95
2022-09-11T11:38:27.183Z,99599.59
2022-09-11T11:39:29.626Z,99592.36
2022-09-11T11:40:32.439Z,99593.99
2022-09-11T11:41:34.882Z,99593.80
2022-09-11T11:42:37.655Z,99595.30
2022-09-11T11:43:40.154Z,99597.29
2022-09-11T11:44:42.593Z,99600.55
2022-09-11T11:45:46.000Z,99603.20
2022-09-11T11:46:48.916Z,99600.86
2022-09-11T11:47:51.416Z,99608.12
2022-09-11T11:48:53.850Z,99612.64
2022-09-11T11:49:56.484Z,99608.20
2022-09-11T11:50:59.369Z,99607.81
2022-09-11T11:52:01.807Z,99605.48
2022-09-11T11:53:04.251Z,99602.16
2022-09-11T11:54:06.794Z,99603.66
2022-09-11T11:55:09.755Z,99585.26
2022-09-11T11:56:13.335Z,99583.81
2022-09-11T11:57:15.787Z,99580.48
2022-09-11T11:58:18.340Z,99574.05
2022-09-11T11:59:21.013Z,99585.86
2022-09-11T12:00:23.652Z,99585.03
2022-09-11T12:01:26.440Z,99576.26
2022-09-11T12:02:29.335Z,99580.25
2022-09-11T12:03:31.813Z,99572.96
2022-09-11T12:04:34.229Z,99587.38
2022-09-11T12:05:36.689Z,99569.84
2022-09-11T12:06:39.401Z,99569.00
2022-09-11T12:07:41.846Z,99574.66
2022-09-11T12:08:44.481Z,99569.34
2022-09-11T12:09:47.307Z,99571.33
2022-09-11T12:10:50.077Z,99559.39
2022-09-11T12:11:52.576Z,99557.57
2022-09-11T12:12:55.026Z,99563.38
2022-09-11T12:13:57.771Z,99562.55
2022-09-11T12:15:00.222Z,99558.76
2022-09-11T12:16:02.835Z,99556.75